Easton, WA (98925)

10:09 AM PDT die 28o September, anno 2016 (GMT -0700)
Cle Elum Wa - GiddyLodge | | Change Station

Elev 2117 ft 47.21 °N, 121.11 °W | Updated 5 minutes ago

Partly Cloudy
Partialiter Nubila
54.1 °F
Feels Like 54.1 °F
N
2.0
Ventus Variabilis Ventus from Magis Zephyrus quam Aquilo
Gusts 5.0 mph

Hodie
High -- | Low -- °F
--% Chance of Precip.
Yesterday
High -- | Low -- °F
Precip. -- in
Pressio 30.14 in
Visibilitas -9999.0 milia passuum
Clouds Few 12000 ft
Frigus in quo Ros apparet 49 °F
Umor 82%
Rainfall 0.00 in
Snow Depth Not available.
7:00 AM 6:49 PM
Waning Crescent, 5% visible
METAR KSMP 281656Z AUTO 00000KT FEW120 13/06 A3010 RMK AO2 SLP206 T01330056 $
Pressio 30.14 in
Visibilitas -9999.0 milia passuum
Clouds Few 12000 ft
Frigus in quo Ros apparet 49 °F
Umor 82%
Rainfall 0.00 in
Snow Depth Not available.
7:00 AM 6:49 PM
Waning Crescent, 5% visible
METAR KSMP 281656Z AUTO 00000KT FEW120 13/06 A3010 RMK AO2 SLP206 T01330056 $

10-Day Weather Forecast

Almanac

Astronomy

Sep. 28, 2016 Rise Set
Actual Time
Civil Twilight
Nautical Twilight
Astronomical Twilight
Moon
Length Of Visible Light
Length of Day
Tomorrow will be .
, % of the Moon is Illuminated

Today's Extremes

State Highs State Lows

Community

WunderPhotos

Upload Photos

1,942,290 photos uploaded!

WunderBlog® & News

Nearby

Air Quality

  Air Quality AQ Index Pollutant
Not available.

Snow Depth

Station Depth Elevation

Earthquake Activity

City Distance Mag. Time & Date
Minimum magnitude displayed is 2.5.

Coastal Water Temperatures

Locus Calor

Stations

Nearby Weather Stations

Station Location Temp Frigus Venti Frigus in quo Ros apparet Umor Ventus Precip. Elev Renovata Type
                   

Watches & Warnings

There are currently no watches in effect.